Time;durP1;ratioP1;P1;durP2;ratioP2;P2;SDS_P1;SDS_P2;PMS_P1;PMS_P2;Temp;Humidity;BMP_temperature;BMP_pressure;BME280_temperature;BME280_humidity;BME280_pressure;Samples;Min_cycle;Max_cycle;Signal;HPM_P1;HPM_P2
2023/01/21 00:00:01;;;;;;;;;;;-0.30;99.90;;;;;;5063959;28;19925;-70
2023/01/21 00:02:29;;;;;;;;;;;-0.30;99.90;;;;;;5053758;28;19939;-70
2023/01/21 00:04:56;;;;;;;;;;;-0.30;99.90;;;;;;5063970;28;20051;-70
2023/01/21 00:07:24;;;;;;;;;;;-0.30;99.90;;;;;;5058367;28;19924;-70
2023/01/21 00:09:51;;;;;;;;;;;-0.30;99.90;;;;;;5057733;28;20398;-70
2023/01/21 00:12:18;;;;;;;;;;;-0.30;99.90;;;;;;5051543;28;20008;-70
2023/01/21 00:14:44;;;;;;;;;;;-0.30;99.90;;;;;;5057274;28;20019;-71
2023/01/21 00:17:11;;;;;;;;;;;-0.30;99.90;;;;;;5058349;28;20306;-70
2023/01/21 00:19:39;;;;;;;;;;;-0.40;99.90;;;;;;5065354;28;20015;-70
2023/01/21 00:22:05;;;;;;;;;;;-0.40;99.90;;;;;;5060927;28;20006;-71
2023/01/21 00:24:32;;;;;;;;;;;-0.50;99.90;;;;;;5055789;28;19964;-70
2023/01/21 00:26:59;;;;;;;;;;;-0.50;99.90;;;;;;5067147;28;20383;-71
2023/01/21 00:29:26;;;;;;;;;;;-0.50;99.90;;;;;;5058728;28;19924;-70
2023/01/21 00:31:52;;;;;;;;;;;-0.50;99.90;;;;;;5051588;28;19955;-70
2023/01/21 00:34:19;;;;;;;;;;;-0.50;99.90;;;;;;5051032;28;20291;-70
2023/01/21 00:36:47;;;;;;;;;;;-0.60;99.90;;;;;;5051476;28;19932;-71
2023/01/21 00:39:14;;;;;;;;;;;-0.50;99.90;;;;;;5057132;28;19931;-70
2023/01/21 00:41:40;;;;;;;;;;;-0.60;99.90;;;;;;5054066;28;19924;-71
2023/01/21 00:44:07;;;;;;;;;;;-0.50;99.90;;;;;;5052193;28;19929;-70
2023/01/21 00:46:33;;;;;;;;;;;-0.60;99.90;;;;;;5054368;28;19924;-71
2023/01/21 00:49:00;;;;;;;;;;;-0.60;99.90;;;;;;5062601;28;20007;-70
2023/01/21 00:51:27;;;;;;;;;;;-0.50;99.90;;;;;;5053587;28;19925;-71
2023/01/21 00:53:55;;;;;;;;;;;-0.50;99.90;;;;;;5052981;28;19925;-72
2023/01/21 00:56:22;;;;;;;;;;;-0.60;99.90;;;;;;5058617;28;20007;-70
2023/01/21 00:58:48;;;;;;;;;;;-0.60;99.90;;;;;;5066304;28;19983;-70
2023/01/21 01:01:17;;;;;;;;;;;-0.60;99.90;;;;;;5064145;28;19929;-70
2023/01/21 01:03:44;;;;;;;;;;;-0.60;99.90;;;;;;5051233;28;19924;-70
2023/01/21 01:06:11;;;;;;;;;;;-0.60;99.90;;;;;;5054490;28;19931;-70
2023/01/21 01:08:38;;;;;;;;;;;-0.60;99.90;;;;;;5051113;28;19925;-70
2023/01/21 01:11:06;;;;;;;;;;;-0.60;99.90;;;;;;5067963;28;19924;-70
2023/01/21 01:13:33;;;;;;;;;;;-0.60;99.90;;;;;;5059651;28;19924;-70
2023/01/21 01:16:01;;;;;;;;;;;-0.70;99.90;;;;;;5068035;28;19924;-71
2023/01/21 01:18:28;;;;;;;;;;;-0.70;99.90;;;;;;5060821;28;20230;-70
2023/01/21 01:20:55;;;;;;;;;;;-0.70;99.90;;;;;;5066124;28;20376;-71
2023/01/21 01:23:22;;;;;;;;;;;-0.70;99.90;;;;;;5061759;28;20023;-70
2023/01/21 01:25:54;;;;;;;;;;;-0.70;99.90;;;;;;5064452;28;19943;-70
2023/01/21 01:28:22;;;;;;;;;;;-0.70;99.90;;;;;;5070271;28;20011;-70
2023/01/21 01:30:49;;;;;;;;;;;-0.80;99.90;;;;;;5071278;28;19935;-71
2023/01/21 01:33:16;;;;;;;;;;;-0.80;99.90;;;;;;5058934;28;20288;-70
2023/01/21 01:35:45;;;;;;;;;;;-0.80;99.90;;;;;;5074088;28;19924;-70
2023/01/21 01:38:12;;;;;;;;;;;-0.80;99.90;;;;;;5063399;28;20341;-70
2023/01/21 01:40:40;;;;;;;;;;;-0.80;99.90;;;;;;5058568;28;20338;-71
2023/01/21 01:43:12;;;;;;;;;;;-0.80;99.90;;;;;;5070537;28;19944;-71
2023/01/21 01:45:40;;;;;;;;;;;-0.80;99.90;;;;;;5071089;28;19925;-72
2023/01/21 01:48:09;;;;;;;;;;;-0.80;99.90;;;;;;5071048;28;20318;-70
2023/01/21 01:50:38;;;;;;;;;;;-0.80;99.90;;;;;;5070496;28;19931;-70
2023/01/21 01:53:04;;;;;;;;;;;-0.80;99.90;;;;;;5058944;28;19928;-70
2023/01/21 01:55:33;;;;;;;;;;;-0.80;99.90;;;;;;5054671;28;19924;-70
2023/01/21 01:58:01;;;;;;;;;;;-0.80;99.90;;;;;;5069636;28;19931;-70
2023/01/21 02:00:28;;;;;;;;;;;-0.80;99.90;;;;;;5070999;28;19930;-70
2023/01/21 02:05:43;;;;;;;;;;;-0.80;99.90;;;;;;5041660;28;19940;-70
2023/01/21 02:08:10;;;;;;;;;;;-0.80;99.90;;;;;;5067199;28;19924;-70
2023/01/21 02:10:37;;;;;;;;;;;-0.80;99.90;;;;;;5069353;28;19931;-70
2023/01/21 02:13:04;;;;;;;;;;;-0.90;99.90;;;;;;5057489;28;19925;-71
2023/01/21 02:15:35;;;;;;;;;;;-0.90;99.90;;;;;;5069602;28;19929;-70
2023/01/21 02:18:11;;;;;;;;;;;-0.90;99.90;;;;;;5063976;28;19956;-70
2023/01/21 02:20:50;;;;;;;;;;;-1.00;99.90;;;;;;5068604;28;19961;-70
2023/01/21 02:23:18;;;;;;;;;;;-1.00;99.90;;;;;;5065184;28;19924;-71
2023/01/21 02:25:55;;;;;;;;;;;-1.00;99.90;;;;;;5077632;28;19930;-71
2023/01/21 02:28:39;;;;;;;;;;;-1.00;99.90;;;;;;5071966;28;19924;-70
2023/01/21 02:31:26;;;;;;;;;;;-1.00;99.90;;;;;;5076614;28;19924;-71
2023/01/21 02:34:01;;;;;;;;;;;-1.00;99.90;;;;;;5064123;28;20295;-70
2023/01/21 02:36:35;;;;;;;;;;;-1.00;99.90;;;;;;5053755;28;19925;-70
2023/01/21 02:39:06;;;;;;;;;;;-1.00;99.90;;;;;;5068291;28;19933;-70
2023/01/21 02:41:38;;;;;;;;;;;-1.00;99.90;;;;;;5056251;28;20391;-70
2023/01/21 02:44:07;;;;;;;;;;;-1.00;99.90;;;;;;5071345;28;20018;-70
2023/01/21 02:46:37;;;;;;;;;;;-1.00;99.90;;;;;;5065037;28;19932;-70
2023/01/21 02:49:07;;;;;;;;;;;-1.10;99.90;;;;;;5067035;28;19928;-70
2023/01/21 02:51:34;;;;;;;;;;;-1.10;99.90;;;;;;5061261;28;20292;-69
2023/01/21 02:54:12;;;;;;;;;;;-1.20;99.90;;;;;;5053635;28;19925;-70
2023/01/21 02:56:38;;;;;;;;;;;-1.20;99.90;;;;;;5052930;28;19929;-70
2023/01/21 02:59:05;;;;;;;;;;;-1.20;99.90;;;;;;5066002;28;20019;-70
2023/01/21 03:01:38;;;;;;;;;;;-1.20;99.90;;;;;;5054318;28;19925;-69
2023/01/21 03:04:19;;;;;;;;;;;-1.30;99.90;;;;;;5067587;28;19938;-70
2023/01/21 03:06:49;;;;;;;;;;;-1.30;99.90;;;;;;5069859;28;19924;-70
2023/01/21 03:09:21;;;;;;;;;;;-1.30;99.90;;;;;;5057407;28;19924;-70
2023/01/21 03:11:51;;;;;;;;;;;-1.30;99.90;;;;;;5053209;28;19947;-70
2023/01/21 03:17:11;;;;;;;;;;;-1.30;99.90;;;;;;5067782;28;20303;-70
2023/01/21 03:19:40;;;;;;;;;;;-1.30;99.90;;;;;;5054453;28;19925;-70
2023/01/21 03:22:10;;;;;;;;;;;-1.30;99.90;;;;;;5059875;28;20020;-70
2023/01/21 03:24:36;;;;;;;;;;;-1.30;99.90;;;;;;5071243;28;19924;-70
2023/01/21 03:27:05;;;;;;;;;;;-1.20;99.90;;;;;;5056400;28;19988;-70
2023/01/21 03:29:32;;;;;;;;;;;-1.20;99.90;;;;;;5054782;28;19935;-70
2023/01/21 03:32:02;;;;;;;;;;;-1.20;99.90;;;;;;5062407;28;19931;-69
2023/01/21 03:34:30;;;;;;;;;;;-1.30;99.90;;;;;;5068040;28;20372;-71
2023/01/21 03:37:02;;;;;;;;;;;-1.20;99.90;;;;;;5064635;28;19967;-70
2023/01/21 03:39:32;;;;;;;;;;;-1.20;99.90;;;;;;5057164;28;20344;-70
2023/01/21 03:41:58;;;;;;;;;;;-1.30;99.90;;;;;;5072496;28;19924;-71
2023/01/21 03:44:26;;;;;;;;;;;-1.20;99.90;;;;;;5056048;28;19928;-70
2023/01/21 03:46:56;;;;;;;;;;;-1.30;99.90;;;;;;5051489;28;20658;-71
2023/01/21 03:49:26;;;;;;;;;;;-1.30;99.90;;;;;;5059071;28;19939;-69
2023/01/21 03:51:54;;;;;;;;;;;-1.40;99.90;;;;;;5057443;28;19925;-70
2023/01/21 03:54:23;;;;;;;;;;;-1.30;99.90;;;;;;5055978;28;19925;-70
2023/01/21 03:56:50;;;;;;;;;;;-1.30;99.90;;;;;;5060179;28;20272;-70
2023/01/21 03:59:16;;;;;;;;;;;-1.40;99.90;;;;;;5060444;28;19947;-70
2023/01/21 04:01:43;;;;;;;;;;;-1.30;99.90;;;;;;5055803;28;19978;-70
2023/01/21 04:04:10;;;;;;;;;;;-1.40;99.90;;;;;;5060686;28;19932;-70
2023/01/21 04:06:36;;;;;;;;;;;-1.40;99.90;;;;;;5067447;28;19925;-69
2023/01/21 04:09:03;;;;;;;;;;;-1.40;99.90;;;;;;5054603;28;19972;-70
2023/01/21 04:11:31;;;;;;;;;;;-1.40;99.90;;;;;;5065640;28;19925;-71
2023/01/21 04:13:58;;;;;;;;;;;-1.40;99.90;;;;;;5066534;28;20390;-70
2023/01/21 04:16:24;;;;;;;;;;;-1.40;99.90;;;;;;5064188;28;19968;-70
2023/01/21 04:18:51;;;;;;;;;;;-1.30;99.90;;;;;;5063292;28;19929;-70
2023/01/21 04:21:18;;;;;;;;;;;-1.40;99.90;;;;;;5059871;28;19986;-70
2023/01/21 04:23:44;;;;;;;;;;;-1.40;99.90;;;;;;5068463;28;19931;-70
2023/01/21 04:26:11;;;;;;;;;;;-1.40;99.90;;;;;;5069559;28;20295;-70
2023/01/21 04:28:40;;;;;;;;;;;-1.50;99.90;;;;;;5069093;28;20345;-70
2023/01/21 04:31:07;;;;;;;;;;;-1.50;99.90;;;;;;5068852;28;20362;-69
2023/01/21 04:33:34;;;;;;;;;;;-1.50;99.90;;;;;;5064518;28;19931;-71
2023/01/21 04:36:01;;;;;;;;;;;-1.40;99.90;;;;;;5057872;28;20336;-70
2023/01/21 04:38:27;;;;;;;;;;;-1.40;99.90;;;;;;5054519;28;19925;-69
2023/01/21 04:40:54;;;;;;;;;;;-1.50;99.90;;;;;;5059610;28;20405;-70
2023/01/21 04:43:21;;;;;;;;;;;-1.50;99.90;;;;;;5067931;28;19925;-70
2023/01/21 04:45:49;;;;;;;;;;;-1.50;99.90;;;;;;5068804;28;19928;-70
2023/01/21 04:48:16;;;;;;;;;;;-1.50;99.90;;;;;;5065370;28;19929;-69
2023/01/21 04:50:43;;;;;;;;;;;-1.50;99.90;;;;;;5055898;28;19931;-69
2023/01/21 04:53:09;;;;;;;;;;;-1.50;99.90;;;;;;5051511;28;20015;-69
2023/01/21 04:55:36;;;;;;;;;;;-1.50;99.90;;;;;;5065343;28;19924;-69
2023/01/21 04:58:03;;;;;;;;;;;-1.40;99.90;;;;;;5065298;28;20003;-70
2023/01/21 05:00:29;;;;;;;;;;;-1.40;99.90;;;;;;5069931;28;19924;-70
2023/01/21 05:02:57;;;;;;;;;;;-1.40;99.90;;;;;;5068409;28;19947;-75
2023/01/21 05:05:24;;;;;;;;;;;-1.40;99.90;;;;;;5060557;28;19947;-71
2023/01/21 05:07:52;;;;;;;;;;;-1.40;99.90;;;;;;5055848;28;19935;-72
2023/01/21 05:10:18;;;;;;;;;;;-1.40;99.90;;;;;;5059884;28;19931;-70
2023/01/21 05:12:45;;;;;;;;;;;-1.40;99.90;;;;;;5057955;28;19925;-70
2023/01/21 05:15:11;;;;;;;;;;;-1.40;99.90;;;;;;5051750;28;19926;-70
2023/01/21 05:17:38;;;;;;;;;;;-1.40;99.90;;;;;;5054565;28;19925;-71
2023/01/21 05:20:07;;;;;;;;;;;-1.50;99.90;;;;;;5065003;28;20295;-69
2023/01/21 05:22:33;;;;;;;;;;;-1.40;99.90;;;;;;5061189;28;19928;-71
2023/01/21 05:25:00;;;;;;;;;;;-1.50;99.90;;;;;;5054112;28;19971;-71
2023/01/21 05:27:27;;;;;;;;;;;-1.50;99.90;;;;;;5051254;28;19972;-70
2023/01/21 05:29:53;;;;;;;;;;;-1.50;99.90;;;;;;5060262;28;19924;-70
2023/01/21 05:32:20;;;;;;;;;;;-1.50;99.90;;;;;;5058440;28;19924;-70
2023/01/21 05:34:47;;;;;;;;;;;-1.40;99.90;;;;;;5056848;28;20015;-70
2023/01/21 05:37:15;;;;;;;;;;;-1.50;99.90;;;;;;5066311;28;19925;-71
2023/01/21 05:39:42;;;;;;;;;;;-1.50;99.90;;;;;;5065844;28;20390;-72
2023/01/21 05:42:09;;;;;;;;;;;-1.50;99.90;;;;;;5067256;28;19924;-70
2023/01/21 05:44:35;;;;;;;;;;;-1.50;99.90;;;;;;5059534;28;19929;-70
2023/01/21 05:47:02;;;;;;;;;;;-1.60;99.90;;;;;;5060984;28;19931;-70
2023/01/21 05:49:28;;;;;;;;;;;-1.60;99.90;;;;;;5061342;28;19931;-70
2023/01/21 05:51:55;;;;;;;;;;;-1.60;99.90;;;;;;5067519;28;20397;-70
2023/01/21 05:54:23;;;;;;;;;;;-1.60;99.90;;;;;;5065332;28;20422;-68
2023/01/21 05:56:50;;;;;;;;;;;-1.60;99.90;;;;;;5062344;28;19924;-71
2023/01/21 05:59:16;;;;;;;;;;;-1.60;99.90;;;;;;5062362;28;20023;-70
2023/01/21 06:01:43;;;;;;;;;;;-1.60;99.90;;;;;;5060263;28;19929;-70
2023/01/21 06:04:10;;;;;;;;;;;-1.60;99.90;;;;;;5062366;28;20011;-70
2023/01/21 06:06:37;;;;;;;;;;;-1.60;99.90;;;;;;5065495;28;19924;-70
2023/01/21 06:09:03;;;;;;;;;;;-1.70;99.90;;;;;;5053313;28;19934;-69
2023/01/21 06:11:31;;;;;;;;;;;-1.70;99.90;;;;;;5062331;28;19935;-70
2023/01/21 06:13:58;;;;;;;;;;;-1.80;99.90;;;;;;5056620;28;19931;-70
2023/01/21 06:16:25;;;;;;;;;;;-1.80;99.90;;;;;;5055572;28;20998;-71
2023/01/21 06:18:51;;;;;;;;;;;-1.90;99.90;;;;;;5056525;28;19924;-71
2023/01/21 06:21:18;;;;;;;;;;;-1.90;99.90;;;;;;5073766;28;19931;-69
2023/01/21 06:23:45;;;;;;;;;;;-1.90;99.90;;;;;;5069669;28;20371;-70
2023/01/21 06:26:11;;;;;;;;;;;-2.00;99.90;;;;;;5054067;28;19929;-69
2023/01/21 06:28:39;;;;;;;;;;;-1.90;99.90;;;;;;5054862;28;19931;-71
2023/01/21 06:31:06;;;;;;;;;;;-1.90;99.90;;;;;;5066357;28;19924;-72
2023/01/21 06:33:32;;;;;;;;;;;-1.90;99.90;;;;;;5066709;28;19931;-70
2023/01/21 06:35:59;;;;;;;;;;;-2.00;99.90;;;;;;5059340;28;19928;-70
2023/01/21 06:38:26;;;;;;;;;;;-2.00;99.90;;;;;;5059419;28;20013;-69
2023/01/21 06:40:52;;;;;;;;;;;-2.00;99.90;;;;;;5062234;28;19939;-70
2023/01/21 06:43:19;;;;;;;;;;;-2.10;99.90;;;;;;5057701;28;19947;-69
2023/01/21 06:45:47;;;;;;;;;;;-2.00;99.90;;;;;;5063697;28;19963;-70
2023/01/21 06:48:14;;;;;;;;;;;-2.00;99.90;;;;;;5068718;28;19975;-70
2023/01/21 06:50:40;;;;;;;;;;;-2.10;99.90;;;;;;5055777;28;19984;-70
2023/01/21 06:53:07;;;;;;;;;;;-2.00;99.90;;;;;;5053836;28;19967;-70
2023/01/21 06:55:34;;;;;;;;;;;-2.00;99.90;;;;;;5067541;28;19979;-70
2023/01/21 06:58:00;;;;;;;;;;;-2.00;99.90;;;;;;5053882;28;20016;-70
2023/01/21 07:00:27;;;;;;;;;;;-2.00;99.90;;;;;;5061422;28;19975;-70
2023/01/21 07:02:57;;;;;;;;;;;-2.10;99.90;;;;;;5066439;28;19924;-70
2023/01/21 07:05:23;;;;;;;;;;;-2.10;99.90;;;;;;5058952;28;19924;-69
2023/01/21 07:07:53;;;;;;;;;;;-2.10;99.90;;;;;;5066759;28;19925;-70
2023/01/21 07:10:19;;;;;;;;;;;-2.00;99.90;;;;;;5067004;28;19925;-73
2023/01/21 07:12:46;;;;;;;;;;;-2.00;99.90;;;;;;5059516;28;19924;-72
2023/01/21 07:15:13;;;;;;;;;;;-2.00;99.90;;;;;;5063831;28;19924;-73
2023/01/21 07:17:39;;;;;;;;;;;-2.00;99.90;;;;;;5065555;28;19934;-72
2023/01/21 07:20:11;;;;;;;;;;;-2.00;99.90;;;;;;5059704;28;20015;-73
2023/01/21 07:22:38;;;;;;;;;;;-2.10;99.90;;;;;;5067262;28;19932;-71
2023/01/21 07:25:05;;;;;;;;;;;-2.10;99.90;;;;;;5061234;28;19929;-72
2023/01/21 07:27:31;;;;;;;;;;;-2.10;99.90;;;;;;5066919;28;20002;-72
2023/01/21 07:29:58;;;;;;;;;;;-2.10;99.90;;;;;;5058690;28;20045;-72
2023/01/21 07:32:25;;;;;;;;;;;-2.10;99.90;;;;;;5060406;28;19930;-71
2023/01/21 07:34:51;;;;;;;;;;;-2.10;99.90;;;;;;5059102;28;20019;-71
2023/01/21 07:37:19;;;;;;;;;;;-2.10;99.90;;;;;;5066867;28;20027;-71
2023/01/21 07:39:46;;;;;;;;;;;-2.10;99.90;;;;;;5060209;28;20298;-70
2023/01/21 07:42:13;;;;;;;;;;;-2.10;99.90;;;;;;5056335;28;19924;-70
2023/01/21 07:44:39;;;;;;;;;;;-2.10;99.90;;;;;;5061444;28;19930;-70
2023/01/21 07:47:06;;;;;;;;;;;-2.10;99.90;;;;;;5064101;28;20401;-72
2023/01/21 07:49:32;;;;;;;;;;;-2.10;99.90;;;;;;5055338;28;19932;-72
2023/01/21 07:51:59;;;;;;;;;;;-2.10;99.90;;;;;;5050963;28;20302;-70
2023/01/21 07:54:27;;;;;;;;;;;-2.20;99.90;;;;;;5057439;28;19925;-70
2023/01/21 07:56:54;;;;;;;;;;;-2.20;99.90;;;;;;5058280;28;19932;-71
2023/01/21 07:59:20;;;;;;;;;;;-2.30;99.90;;;;;;5057255;28;19935;-71
2023/01/21 08:01:47;;;;;;;;;;;-2.20;99.90;;;;;;5059487;28;19935;-70
2023/01/21 08:04:14;;;;;;;;;;;-2.10;99.90;;;;;;5057778;28;20020;-71
2023/01/21 08:06:40;;;;;;;;;;;-2.10;99.90;;;;;;5065221;28;20012;-73
2023/01/21 08:09:07;;;;;;;;;;;-2.00;99.90;;;;;;5063904;28;19924;-74
2023/01/21 08:11:36;;;;;;;;;;;-2.00;99.90;;;;;;5062692;28;19936;-74
2023/01/21 08:14:02;;;;;;;;;;;-1.90;99.90;;;;;;5055936;28;19925;-73
2023/01/21 08:16:29;;;;;;;;;;;-1.90;99.90;;;;;;5058960;28;19925;-72
2023/01/21 08:18:55;;;;;;;;;;;-1.90;99.90;;;;;;5061354;28;19932;-76
2023/01/21 08:21:22;;;;;;;;;;;-1.90;99.90;;;;;;5061001;28;20011;-76
2023/01/21 08:23:49;;;;;;;;;;;-1.90;99.90;;;;;;5055410;28;19924;-78
2023/01/21 08:26:15;;;;;;;;;;;-1.80;99.90;;;;;;5057160;28;19960;-75
2023/01/21 08:28:44;;;;;;;;;;;-1.80;99.90;;;;;;5057695;28;20033;-76
2023/01/21 08:31:12;;;;;;;;;;;-1.80;99.90;;;;;;5055006;28;20344;-72
2023/01/21 08:33:39;;;;;;;;;;;-1.70;99.90;;;;;;5062534;28;19924;-73
2023/01/21 08:36:07;;;;;;;;;;;-1.70;99.90;;;;;;5064461;28;20394;-77
2023/01/21 08:38:38;;;;;;;;;;;-1.70;99.90;;;;;;5062276;28;19931;-75
2023/01/21 08:41:05;;;;;;;;;;;-1.60;99.90;;;;;;5069410;28;19924;-75
2023/01/21 08:43:32;;;;;;;;;;;-1.40;99.90;;;;;;5070057;28;19924;-72
2023/01/21 08:46:01;;;;;;;;;;;-0.80;99.90;;;;;;5062637;28;19932;-75
2023/01/21 08:48:28;;;;;;;;;;;-0.50;99.90;;;;;;5061988;28;19932;-75
2023/01/21 08:50:57;;;;;;;;;;;-0.20;99.90;;;;;;5062308;28;20015;-72
2023/01/21 08:53:24;;;;;;;;;;;-0.10;99.90;;;;;;5064393;28;19924;-75
2023/01/21 08:55:50;;;;;;;;;;;-0.10;99.90;;;;;;5065713;28;19924;-75
2023/01/21 08:58:17;;;;;;;;;;;0.10;99.90;;;;;;5087059;28;20447;-76
2023/01/21 09:00:44;;;;;;;;;;;0.30;99.90;;;;;;5062797;28;20376;-74
2023/01/21 09:03:15;;;;;;;;;;;0.60;99.90;;;;;;5068808;28;20337;-74
2023/01/21 09:05:42;;;;;;;;;;;0.70;99.90;;;;;;5064539;28;20387;-80
2023/01/21 09:08:09;;;;;;;;;;;0.40;99.90;;;;;;5059583;28;19924;-79
2023/01/21 09:13:20;;;;;;;;;;;0.40;99.90;;;;;;5063132;28;20063;-78
2023/01/21 09:15:46;;;;;;;;;;;0.30;99.90;;;;;;5060586;28;19928;-78
2023/01/21 09:18:14;;;;;;;;;;;0.50;99.90;;;;;;5065205;28;19924;-80
2023/01/21 09:20:41;;;;;;;;;;;0.70;99.90;;;;;;5059481;28;20019;-77
2023/01/21 09:23:22;;;;;;;;;;;0.40;99.90;;;;;;5061938;28;19954;-79
2023/01/21 09:25:49;;;;;;;;;;;0.50;99.90;;;;;;5053160;28;19925;-76
2023/01/21 09:28:16;;;;;;;;;;;0.50;99.90;;;;;;5054368;28;19925;-76
2023/01/21 09:30:43;;;;;;;;;;;0.40;99.90;;;;;;5058290;28;19928;-77
2023/01/21 09:33:09;;;;;;;;;;;0.20;99.90;;;;;;5061338;28;19933;-80
2023/01/21 09:35:38;;;;;;;;;;;0.50;99.90;;;;;;5059361;28;19968;-80
2023/01/21 09:38:04;;;;;;;;;;;0.70;99.90;;;;;;5072858;28;19931;-78
2023/01/21 09:40:31;;;;;;;;;;;0.00;99.90;;;;;;5064129;28;20015;-82
2023/01/21 09:43:00;;;;;;;;;;;-0.30;99.90;;;;;;5064541;28;19925;-80
2023/01/21 09:45:26;;;;;;;;;;;-0.40;99.90;;;;;;5072377;28;19925;-73
2023/01/21 09:47:55;;;;;;;;;;;-0.50;99.90;;;;;;5060130;28;19974;-79
2023/01/21 09:50:23;;;;;;;;;;;-0.40;99.90;;;;;;5059121;28;19936;-79
2023/01/21 09:52:52;;;;;;;;;;;-0.40;99.90;;;;;;5065653;28;19938;-77
2023/01/21 09:55:20;;;;;;;;;;;-0.40;99.90;;;;;;5063523;28;20001;-79
2023/01/21 09:58:07;;;;;;;;;;;-0.30;99.90;;;;;;5069948;28;19928;-81
2023/01/21 10:00:36;;;;;;;;;;;-0.30;99.90;;;;;;5066996;28;20382;-77
2023/01/21 10:03:12;;;;;;;;;;;-0.20;99.90;;;;;;5066532;28;19936;-78
2023/01/21 10:05:44;;;;;;;;;;;-0.20;99.90;;;;;;5064612;28;19924;-74
2023/01/21 10:08:17;;;;;;;;;;;-0.20;99.90;;;;;;5070242;23;19925;-78
2023/01/21 10:10:47;;;;;;;;;;;-0.10;99.90;;;;;;5047151;28;19924;-76
2023/01/21 10:13:21;;;;;;;;;;;-0.10;99.90;;;;;;5044926;28;20012;-79
2023/01/21 10:15:51;;;;;;;;;;;-0.10;99.90;;;;;;5047658;28;19975;-76
2023/01/21 10:18:19;;;;;;;;;;;0.00;99.90;;;;;;5073019;22;19925;-73
2023/01/21 10:20:50;;;;;;;;;;;0.00;99.90;;;;;;5054283;28;19928;-73
2023/01/21 10:23:21;;;;;;;;;;;0.00;99.90;;;;;;5048830;28;19929;-72
2023/01/21 10:25:48;;;;;;;;;;;0.10;99.90;;;;;;5063159;28;20358;-79
2023/01/21 10:28:19;;;;;;;;;;;0.10;99.90;;;;;;5070261;28;19963;-78
2023/01/21 10:30:49;;;;;;;;;;;0.10;99.90;;;;;;5055914;28;19932;-78
2023/01/21 10:33:17;;;;;;;;;;;0.10;99.90;;;;;;5057132;28;19951;-78
2023/01/21 10:35:51;;;;;;;;;;;0.20;99.90;;;;;;5071693;28;20286;-78
2023/01/21 10:38:23;;;;;;;;;;;0.20;99.90;;;;;;5067144;28;20479;-75
2023/01/21 10:40:55;;;;;;;;;;;0.30;99.90;;;;;;5065718;28;19925;-76
2023/01/21 10:43:31;;;;;;;;;;;0.30;99.90;;;;;;5074407;28;19931;-77
2023/01/21 10:46:02;;;;;;;;;;;0.50;99.90;;;;;;5064296;28;19979;-75
2023/01/21 10:48:33;;;;;;;;;;;0.50;99.90;;;;;;5071996;28;19924;-75
2023/01/21 10:51:04;;;;;;;;;;;0.50;99.90;;;;;;5063895;28;19929;-77
2023/01/21 10:53:35;;;;;;;;;;;0.50;99.90;;;;;;5062886;28;20458;-77
2023/01/21 10:56:13;;;;;;;;;;;0.40;99.90;;;;;;5066627;28;19931;-76
2023/01/21 10:58:42;;;;;;;;;;;0.50;99.90;;;;;;5067951;28;19935;-81
2023/01/21 11:01:14;;;;;;;;;;;0.40;99.90;;;;;;5063219;28;19925;-78
2023/01/21 11:03:42;;;;;;;;;;;0.60;99.90;;;;;;5067687;28;19928;-77
2023/01/21 11:06:11;;;;;;;;;;;0.50;99.90;;;;;;5067925;28;20402;-77
2023/01/21 11:08:40;;;;;;;;;;;0.70;99.90;;;;;;5061606;28;19932;-77
2023/01/21 11:11:08;;;;;;;;;;;0.80;99.90;;;;;;5065509;28;19936;-78
2023/01/21 11:13:35;;;;;;;;;;;0.70;99.90;;;;;;5065724;28;19924;-77
2023/01/21 11:16:03;;;;;;;;;;;0.70;99.90;;;;;;5065922;28;19925;-76
2023/01/21 11:18:31;;;;;;;;;;;0.80;99.90;;;;;;5065629;28;19925;-76
2023/01/21 11:20:59;;;;;;;;;;;0.80;99.90;;;;;;5063538;28;19924;-76
2023/01/21 11:23:27;;;;;;;;;;;0.90;99.90;;;;;;5065041;28;20218;-76
2023/01/21 11:26:01;;;;;;;;;;;1.00;99.90;;;;;;5062721;28;19985;-76
2023/01/21 11:28:29;;;;;;;;;;;1.10;99.90;;;;;;5059952;28;20422;-77
2023/01/21 11:31:04;;;;;;;;;;;1.30;99.90;;;;;;5065355;28;20009;-76
2023/01/21 11:33:31;;;;;;;;;;;1.20;99.90;;;;;;5063259;28;19924;-77
2023/01/21 11:36:08;;;;;;;;;;;1.20;99.90;;;;;;5064908;28;20019;-78
2023/01/21 11:38:35;;;;;;;;;;;1.20;99.90;;;;;;5070915;28;19935;-78
2023/01/21 11:41:04;;;;;;;;;;;1.20;99.90;;;;;;5070952;28;19967;-79
2023/01/21 11:43:32;;;;;;;;;;;1.20;99.90;;;;;;5071517;28;20012;-77
2023/01/21 11:45:59;;;;;;;;;;;1.30;99.90;;;;;;5070113;28;19940;-77
2023/01/21 11:48:26;;;;;;;;;;;1.40;99.90;;;;;;5066214;28;19924;-76
2023/01/21 11:51:05;;;;;;;;;;;1.40;99.90;;;;;;5068222;28;19924;-75
2023/01/21 11:53:32;;;;;;;;;;;1.40;99.90;;;;;;5071435;28;19968;-78
2023/01/21 11:56:00;;;;;;;;;;;1.40;99.90;;;;;;5073192;28;19924;-78
2023/01/21 11:58:31;;;;;;;;;;;1.50;99.90;;;;;;5072319;28;19924;-81
2023/01/21 12:01:00;;;;;;;;;;;1.40;99.90;;;;;;5063975;28;20006;-80
2023/01/21 12:03:29;;;;;;;;;;;1.40;99.90;;;;;;5046635;28;20029;-75
2023/01/21 12:05:56;;;;;;;;;;;1.50;99.90;;;;;;5047538;28;19933;-80
2023/01/21 12:08:23;;;;;;;;;;;1.40;99.90;;;;;;5057401;28;20369;-83
2023/01/21 12:10:51;;;;;;;;;;;1.40;99.90;;;;;;5067491;28;20475;-84
2023/01/21 12:13:20;;;;;;;;;;;1.30;99.90;;;;;;5069125;28;20359;-79
2023/01/21 12:16:03;;;;;;;;;;;1.30;99.90;;;;;;5066361;28;19924;-78
2023/01/21 12:18:33;;;;;;;;;;;1.40;99.90;;;;;;5066771;28;20357;-81
2023/01/21 12:21:03;;;;;;;;;;;1.40;99.90;;;;;;5068756;28;19928;-79
2023/01/21 12:23:49;;;;;;;;;;;1.50;99.90;;;;;;5063407;28;20608;-78
2023/01/21 12:26:26;;;;;;;;;;;1.60;99.90;;;;;;5067596;28;19924;-79
2023/01/21 12:28:58;;;;;;;;;;;1.60;99.90;;;;;;5069063;28;19977;-79
2023/01/21 12:31:29;;;;;;;;;;;1.60;99.90;;;;;;5058914;28;20015;-76
2023/01/21 12:33:59;;;;;;;;;;;1.50;99.90;;;;;;5077526;28;19928;-82
2023/01/21 12:36:29;;;;;;;;;;;1.50;99.90;;;;;;5068194;28;20019;-80
2023/01/21 12:39:05;;;;;;;;;;;1.50;99.90;;;;;;5067325;28;20283;-80
2023/01/21 12:41:32;;;;;;;;;;;1.50;99.90;;;;;;5060837;28;20018;-83
2023/01/21 12:44:05;;;;;;;;;;;1.50;99.90;;;;;;5059961;28;19925;-76
2023/01/21 12:46:36;;;;;;;;;;;1.30;99.90;;;;;;5064087;28;19925;-80
2023/01/21 12:49:06;;;;;;;;;;;1.50;99.90;;;;;;5062557;28;19928;-75
2023/01/21 12:51:34;;;;;;;;;;;1.30;99.90;;;;;;5063408;28;19931;-76
2023/01/21 12:54:04;;;;;;;;;;;1.20;99.90;;;;;;5068400;28;19975;-79
2023/01/21 12:56:34;;;;;;;;;;;1.10;99.90;;;;;;5070342;28;20384;-77
2023/01/21 12:59:03;;;;;;;;;;;0.80;99.90;;;;;;5067955;28;20367;-79
2023/01/21 13:01:40;;;;;;;;;;;0.70;99.90;;;;;;5071593;28;20333;-77
2023/01/21 13:04:14;;;;;;;;;;;0.60;99.90;;;;;;5071831;28;20498;-74
2023/01/21 13:06:43;;;;;;;;;;;0.30;99.90;;;;;;5073847;28;19924;-77
2023/01/21 13:09:12;;;;;;;;;;;0.20;99.90;;;;;;5069876;28;19944;-76
2023/01/21 13:11:42;;;;;;;;;;;-0.10;99.90;;;;;;5070572;28;19924;-76
2023/01/21 13:14:17;;;;;;;;;;;-0.20;99.90;;;;;;5069975;28;19932;-79
2023/01/21 13:16:48;;;;;;;;;;;-0.30;99.90;;;;;;5071422;28;20019;-77
2023/01/21 13:19:15;;;;;;;;;;;-0.30;99.90;;;;;;5068344;28;19928;-75
2023/01/21 13:21:46;;;;;;;;;;;-0.30;99.90;;;;;;5070051;28;19946;-75
2023/01/21 13:24:15;;;;;;;;;;;-0.40;99.90;;;;;;5069738;28;20306;-75
2023/01/21 13:26:45;;;;;;;;;;;-0.40;99.90;;;;;;5075499;28;19932;-77
2023/01/21 13:29:16;;;;;;;;;;;-0.30;99.90;;;;;;5073003;28;19929;-76
2023/01/21 13:31:47;;;;;;;;;;;-0.30;99.90;;;;;;5074989;28;19924;-79
2023/01/21 13:34:20;;;;;;;;;;;-0.30;99.90;;;;;;5073129;28;19925;-75
2023/01/21 13:36:52;;;;;;;;;;;-0.50;99.90;;;;;;5073859;28;19924;-78
2023/01/21 13:39:23;;;;;;;;;;;-0.50;99.90;;;;;;5072764;28;19933;-76
2023/01/21 13:41:58;;;;;;;;;;;-0.50;99.90;;;;;;5074135;28;19925;-77
2023/01/21 13:44:43;;;;;;;;;;;-0.40;99.90;;;;;;5072107;28;20403;-78
2023/01/21 13:47:18;;;;;;;;;;;-0.50;99.90;;;;;;5072417;28;19924;-78
2023/01/21 13:49:54;;;;;;;;;;;-0.40;99.90;;;;;;5069438;28;20023;-77
2023/01/21 13:52:23;;;;;;;;;;;-0.40;99.90;;;;;;5075155;28;19946;-75
2023/01/21 13:54:56;;;;;;;;;;;-0.40;99.90;;;;;;5072159;28;20387;-78
2023/01/21 13:57:33;;;;;;;;;;;-0.20;99.90;;;;;;5072766;28;19924;-78
2023/01/21 14:00:02;;;;;;;;;;;-0.30;99.90;;;;;;5071783;28;20386;-78
2023/01/21 14:02:34;;;;;;;;;;;-0.40;99.90;;;;;;5073707;28;20307;-75
2023/01/21 14:05:05;;;;;;;;;;;-0.30;99.90;;;;;;5070790;28;19931;-77
2023/01/21 14:07:33;;;;;;;;;;;-0.10;99.90;;;;;;5074725;28;20344;-76
2023/01/21 14:10:03;;;;;;;;;;;-0.20;99.90;;;;;;5071727;28;19925;-77
2023/01/21 14:12:40;;;;;;;;;;;-0.10;99.90;;;;;;5070798;28;20318;-75
2023/01/21 14:15:14;;;;;;;;;;;-0.10;99.90;;;;;;5071880;28;20019;-77
2023/01/21 14:17:52;;;;;;;;;;;-0.20;99.90;;;;;;5074324;28;19971;-76
2023/01/21 14:20:35;;;;;;;;;;;-0.20;99.90;;;;;;5077688;28;20007;-80
2023/01/21 14:23:09;;;;;;;;;;;-0.20;99.90;;;;;;5073629;28;19924;-81
2023/01/21 14:25:43;;;;;;;;;;;-0.20;99.90;;;;;;5071659;28;19925;-81
2023/01/21 14:28:14;;;;;;;;;;;-0.20;99.90;;;;;;5074043;28;20031;-80
2023/01/21 14:30:43;;;;;;;;;;;0.00;99.90;;;;;;5072101;28;19924;-77
2023/01/21 14:33:15;;;;;;;;;;;-0.10;99.90;;;;;;5072403;28;20027;-76
2023/01/21 14:35:43;;;;;;;;;;;-0.10;99.90;;;;;;5071128;28;20005;-76
2023/01/21 14:38:12;;;;;;;;;;;-0.10;99.90;;;;;;5074083;28;19931;-79